< Typhoon 200403 2004 Season Typhoon 200405 >
Typhoon 200404 (CONSON)
General InformationTrack Information on Google MapsDetailed Wind InformationAccess Analytics MapList of All Images || NewsDisaster Info.WeblogTrackbackTyphoon FrontResourceGoogle EarthGE AnimationAtom FeedGeoJSON
Detalied Best Track (Time Zone = UTC)
Year Month Day Hour Lat. Long. Pressure (hPa) Wind (kt) Class Image Chart
2004 6 4 18 15.0 116.3 1004 0 2 Image Chart
2004 6 5 00 14.9 116.6 1002 0 2 Image Chart
2004 6 5 06 14.8 117.0 1002 0 2 Image Chart
2004 6 5 12 14.8 117.2 1002 0 2 Image Chart
2004 6 5 18 14.9 117.6 1000 0 2 Image Chart
2004 6 6 00 15.2 117.9 1000 0 2 Image Chart
2004 6 6 06 15.7 118.1 1000 0 2 Image Chart
2004 6 6 12 16.1 118.4 1000 0 2 Image Chart
2004 6 6 18 16.3 118.5 998 35 3 Image Chart
2004 6 7 00 16.5 118.6 992 40 3 Image Chart
2004 6 7 06 16.7 118.8 985 45 3 Image Chart
2004 6 7 12 17.4 119.1 985 50 4 Image Chart
2004 6 7 18 18.1 119.3 980 50 4 Image Chart
2004 6 8 00 18.7 119.4 975 60 4 Image Chart
2004 6 8 06 19.5 119.7 970 65 5 Image Chart
2004 6 8 12 20.0 120.1 965 70 5 Image Chart
2004 6 8 18 20.5 120.6 965 70 5 Image Chart
2004 6 9 00 21.2 121.4 965 70 5 Image Chart
2004 6 9 06 22.4 122.5 960 75 5 Image Chart
2004 6 9 09 23.1 123.2 960 75 5 Image Chart
2004 6 9 12 23.6 123.7 960 80 5 Image Chart
2004 6 9 15 24.2 124.2 960 80 5 Image Chart
2004 6 9 18 24.8 124.9 960 80 5 Image Chart
2004 6 9 21 25.3 125.5 960 80 5 Image Chart
2004 6 10 00 25.8 126.2 960 80 5 Image Chart
2004 6 10 03 26.4 126.8 960 80 5 Image Chart
2004 6 10 06 27.1 127.4 960 75 5 Image Chart
2004 6 10 09 27.8 128.3 960 75 5 Image Chart
2004 6 10 12 28.5 129.0 965 70 5 Image Chart
2004 6 10 15 29.1 129.9 965 70 5 Image Chart
2004 6 10 18 29.7 130.7 970 65 5 Image Chart
2004 6 10 21 30.4 131.4 975 60 4 Image Chart
2004 6 11 00 31.3 132.4 980 55 4 Image Chart
2004 6 11 03 32.1 133.2 985 50 4 Image Chart
2004 6 11 06 32.9 133.8 992 40 3 Image Chart
2004 6 11 07 33.3 134.1 994 35 3 Image Chart
2004 6 11 09 34.2 134.7 1004 0 6 Image Chart
2004 6 11 12 35.5 136.4 1008 0 6 Image Chart
2004 6 11 18 36.9 139.4 1008 0 6 Image Chart
2004 6 12 00 38.0 142.6 1008 0 6 Image Chart
2004 6 12 06 39.3 146.0 1008 0 6 Image Chart
2004 6 12 12 41.1 149.3 1006 0 6 Image Chart
2004 6 12 18 42.5 152.5 1004 0 6 Image Chart
2004 6 13 00 43.5 155.5 1004 0 6 Image Chart
2004 6 13 06 44.9 158.0 1006 0 6 Image Chart
2004 6 13 12 46.6 160.1 1006 0 6 Image Chart
2004 6 13 18 47.9 163.9 1008 0 6 Image Chart
2004 6 14 00 48.3 167.8 1008 0 6 Image Chart
2004 6 14 06 47.8 172.4 1012 0 6 Image Chart
2004 6 14 12 46.7 176.9 1016 0 6 Image Chart
2004 6 14 18 45.3 181.1 1016 0 6 Image Chart
Japan Meteorological Agency Best Track Data | Correction Date : 2006-01-18
< Typhoon 200403 2004 Season Typhoon 200405 >

Help